createdAt,value
2018-11-28T00:00:24.138Z,102190.72
2018-11-28T00:02:53.056Z,102194.92
2018-11-28T00:05:21.986Z,102197.33
2018-11-28T00:07:50.965Z,102200.75
2018-11-28T00:10:19.916Z,102201.17
2018-11-28T00:12:48.824Z,102196.96
2018-11-28T00:15:17.772Z,102195.59
2018-11-28T00:17:46.693Z,102195.10
2018-11-28T00:20:18.116Z,102195.77
2018-11-28T00:22:47.120Z,102198.70
2018-11-28T00:25:16.567Z,102202.30
2018-11-28T00:27:45.512Z,102190.15
2018-11-28T00:30:16.324Z,102189.44
2018-11-28T00:32:45.337Z,102177.84
2018-11-28T00:35:15.287Z,102177.53
2018-11-28T00:37:44.248Z,102183.33
2018-11-28T00:40:14.167Z,102188.02
2018-11-28T00:42:43.099Z,102185.13
2018-11-28T00:45:13.988Z,102183.92
2018-11-28T00:47:42.937Z,102185.55
2018-11-28T00:50:16.742Z,102184.25
2018-11-28T00:52:45.704Z,102189.87
2018-11-28T00:55:15.508Z,102186.86
2018-11-28T00:57:44.509Z,102184.45
2018-11-28T01:00:14.756Z,102187.83
2018-11-28T01:02:43.697Z,102188.33
2018-11-28T01:05:13.147Z,102200.42
2018-11-28T01:07:42.510Z,102196.96
2018-11-28T01:10:17.397Z,102198.00
2018-11-28T01:12:46.645Z,102193.92
2018-11-28T01:15:16.619Z,102200.61
2018-11-28T01:17:45.943Z,102196.03
2018-11-28T01:20:17.992Z,102186.58
2018-11-28T01:22:47.015Z,102186.59
2018-11-28T01:25:17.059Z,102191.27
2018-11-28T01:27:46.076Z,102204.00
2018-11-28T01:30:18.932Z,102191.49
2018-11-28T01:32:47.965Z,102186.08
2018-11-28T01:35:17.881Z,102184.16
2018-11-28T01:37:46.900Z,102188.95
2018-11-28T01:40:17.660Z,102197.61
2018-11-28T01:42:46.737Z,102201.56
2018-11-28T01:45:16.689Z,102206.11
2018-11-28T01:47:45.708Z,102206.22
2018-11-28T01:50:15.793Z,102206.77
2018-11-28T01:52:44.763Z,102201.95
2018-11-28T01:55:16.049Z,102192.48
2018-11-28T01:57:45.074Z,102203.03
2018-11-28T02:00:16.506Z,102199.67
2018-11-28T02:02:46.843Z,102188.38
2018-11-28T02:05:15.759Z,102182.70
2018-11-28T02:07:44.721Z,102183.23
2018-11-28T02:10:14.663Z,102182.47
2018-11-28T02:12:43.627Z,102186.77
2018-11-28T02:15:13.839Z,102181.56
2018-11-28T02:17:42.769Z,102180.50
2018-11-28T02:20:17.345Z,102181.33
2018-11-28T02:22:46.557Z,102179.88
2018-11-28T02:25:16.382Z,102182.64
2018-11-28T02:27:45.847Z,102181.67
2018-11-28T02:30:16.706Z,102193.34
2018-11-28T02:32:46.215Z,102191.72
2018-11-28T02:35:15.686Z,102192.12
2018-11-28T02:37:44.644Z,102186.97
2018-11-28T02:40:14.749Z,102191.39
2018-11-28T02:42:43.802Z,102190.97
2018-11-28T02:45:14.562Z,102193.02
2018-11-28T02:47:43.513Z,102203.16
2018-11-28T02:50:12.474Z,102205.95
2018-11-28T02:52:41.485Z,102203.09
2018-11-28T02:55:12.461Z,102209.95
2018-11-28T02:57:42.231Z,102213.19
2018-11-28T03:00:16.357Z,102213.01
2018-11-28T03:02:45.348Z,102210.88
2018-11-28T03:05:14.562Z,102211.98
2018-11-28T03:07:43.481Z,102222.50
2018-11-28T03:10:23.599Z,102225.59
2018-11-28T03:12:52.527Z,102219.98
2018-11-28T03:15:28.181Z,102208.30
2018-11-28T03:17:57.123Z,102214.16
2018-11-28T03:20:26.113Z,102204.36
2018-11-28T03:22:55.052Z,102211.39
2018-11-28T03:25:23.982Z,102209.09
2018-11-28T03:27:52.939Z,102213.41
2018-11-28T03:30:21.974Z,102210.88
2018-11-28T03:32:51.001Z,102214.50
2018-11-28T03:35:19.956Z,102220.05
2018-11-28T03:37:48.927Z,102225.59
2018-11-28T03:40:17.858Z,102223.72
2018-11-28T03:42:46.794Z,102220.50
2018-11-28T03:45:16.468Z,102221.95
2018-11-28T03:47:45.888Z,102227.59
2018-11-28T03:50:15.566Z,102230.36
2018-11-28T03:52:44.634Z,102233.55
2018-11-28T03:55:14.444Z,102224.23
2018-11-28T03:57:45.411Z,102223.08
2018-11-28T04:00:16.333Z,102218.62
2018-11-28T04:02:45.296Z,102225.83
2018-11-28T04:05:14.265Z,102217.77
2018-11-28T04:07:43.309Z,102214.66
2018-11-28T04:10:14.091Z,102215.05
2018-11-28T04:12:43.857Z,102212.38
2018-11-28T04:15:19.784Z,102203.83
2018-11-28T04:17:48.873Z,102199.78
2018-11-28T04:20:19.784Z,102203.72
2018-11-28T04:22:48.762Z,102197.25
2018-11-28T04:25:19.240Z,102204.92
2018-11-28T04:27:48.255Z,102194.84
2018-11-28T04:30:19.065Z,102192.28
2018-11-28T04:32:48.537Z,102193.59
2018-11-28T04:35:17.488Z,102200.86
2018-11-28T04:37:46.742Z,102194.96
2018-11-28T04:40:18.527Z,102196.91
2018-11-28T04:42:48.161Z,102195.02
2018-11-28T04:45:19.967Z,102194.66
2018-11-28T04:47:49.049Z,102201.20
2018-11-28T04:50:17.991Z,102198.73
2018-11-28T04:52:46.928Z,102196.83
2018-11-28T04:55:17.832Z,102191.10
2018-11-28T04:57:46.912Z,102186.92
2018-11-28T05:00:16.991Z,102182.94
2018-11-28T05:02:45.991Z,102185.61
2018-11-28T05:05:14.885Z,102190.37
2018-11-28T05:07:44.700Z,102195.75
2018-11-28T05:10:14.731Z,102196.80
2018-11-28T05:12:43.731Z,102200.09
2018-11-28T05:15:16.528Z,102205.55
2018-11-28T05:17:47.518Z,102202.98
2018-11-28T05:20:17.696Z,102199.42
2018-11-28T05:22:46.618Z,102206.52
2018-11-28T05:25:17.481Z,102207.52
2018-11-28T05:27:46.734Z,102214.64
2018-11-28T05:30:16.744Z,102218.78
2018-11-28T05:32:45.744Z,102207.73
2018-11-28T05:35:16.695Z,102205.20
2018-11-28T05:37:45.805Z,102205.70
2018-11-28T05:40:23.380Z,102206.94
2018-11-28T05:42:52.452Z,102208.69
2018-11-28T05:45:21.424Z,102202.10
2018-11-28T05:47:50.382Z,102206.90
2018-11-28T05:50:20.288Z,102202.95
2018-11-28T05:52:49.231Z,102204.70
2018-11-28T05:55:20.327Z,102208.76
2018-11-28T05:57:49.292Z,102208.25
2018-11-28T06:00:40.246Z,102213.45
2018-11-28T06:03:11.873Z,102207.67
2018-11-28T06:05:42.013Z,102209.84
2018-11-28T06:08:10.969Z,102222.47
2018-11-28T06:10:39.897Z,102217.58
2018-11-28T06:13:08.947Z,102218.21
2018-11-28T06:15:37.898Z,102217.05
2018-11-28T06:18:08.175Z,102210.89
2018-11-28T06:20:37.170Z,102212.94
2018-11-28T06:23:06.368Z,102206.63
2018-11-28T06:25:35.402Z,102215.12
2018-11-28T06:28:04.632Z,102210.42
2018-11-28T06:30:33.537Z,102217.20
2018-11-28T06:33:02.463Z,102214.18
2018-11-28T06:35:31.419Z,102214.53
2018-11-28T06:38:00.352Z,102214.61
2018-11-28T06:40:29.301Z,102214.41
2018-11-28T06:42:58.267Z,102220.26
2018-11-28T06:45:27.232Z,102224.13
2018-11-28T06:47:56.158Z,102227.55
2018-11-28T06:50:25.123Z,102223.20
2018-11-28T06:52:54.090Z,102234.28
2018-11-28T06:55:23.003Z,102231.41
2018-11-28T06:57:51.967Z,102233.31
2018-11-28T07:00:21.813Z,102231.06
2018-11-28T07:02:51.797Z,102236.23
2018-11-28T07:05:21.219Z,102246.66
2018-11-28T07:07:50.287Z,102247.13
2018-11-28T07:10:20.147Z,102247.95
2018-11-28T07:12:49.188Z,102247.68
2018-11-28T07:15:19.438Z,102250.89
2018-11-28T07:17:48.432Z,102258.27
2018-11-28T07:20:17.575Z,102252.73
2018-11-28T07:22:46.526Z,102246.18
2018-11-28T07:25:17.402Z,102241.71
2018-11-28T07:27:47.241Z,102237.61
2018-11-28T07:30:19.193Z,102237.50
2018-11-28T07:32:49.096Z,102235.04
2018-11-28T07:35:18.898Z,102237.79
2018-11-28T07:37:47.816Z,102233.37
2018-11-28T07:40:22.174Z,102225.70
2018-11-28T07:43:11.533Z,102230.95
2018-11-28T07:45:42.949Z,102228.90
2018-11-28T07:48:11.957Z,102230.30
2018-11-28T07:50:40.901Z,102228.01
2018-11-28T07:53:09.867Z,102216.15
2018-11-28T07:55:38.752Z,102222.05
2018-11-28T07:58:07.709Z,102228.34
2018-11-28T08:00:37.158Z,102227.03
2018-11-28T08:03:07.713Z,102229.02
2018-11-28T08:05:37.641Z,102227.08
2018-11-28T08:08:08.381Z,102220.95
2018-11-28T08:10:37.507Z,102217.42
2018-11-28T08:13:07.151Z,102222.68
2018-11-28T08:15:36.079Z,102222.73
2018-11-28T08:18:05.020Z,102233.27
2018-11-28T08:20:34.411Z,102236.81
2018-11-28T08:23:03.366Z,102238.26
2018-11-28T08:25:32.370Z,102233.34
2018-11-28T08:28:01.318Z,102240.89
2018-11-28T08:30:30.244Z,102240.13
2018-11-28T08:32:59.184Z,102228.60
2018-11-28T08:35:28.136Z,102237.09
2018-11-28T08:37:57.045Z,102233.77
2018-11-28T08:40:26.830Z,102235.30
2018-11-28T08:42:57.732Z,102238.30
2018-11-28T08:45:26.681Z,102240.34
2018-11-28T08:47:57.927Z,102242.12
2018-11-28T08:50:29.272Z,102239.80
2018-11-28T08:52:58.236Z,102233.84
2018-11-28T08:55:27.328Z,102233.78
2018-11-28T08:57:56.279Z,102232.70
2018-11-28T09:00:26.302Z,102230.45
2018-11-28T09:02:56.234Z,102228.39
2018-11-28T09:05:25.161Z,102225.33
2018-11-28T09:07:54.091Z,102228.56
2018-11-28T09:10:23.088Z,102225.22
2018-11-28T09:12:51.985Z,102229.52
2018-11-28T09:15:22.151Z,102229.81
2018-11-28T09:17:51.173Z,102221.39
2018-11-28T09:20:20.177Z,102228.19
2018-11-28T09:22:49.144Z,102219.95
2018-11-28T09:25:18.690Z,102221.27
2018-11-28T09:27:50.877Z,102209.26
2018-11-28T09:30:20.389Z,102204.91
2018-11-28T09:32:50.092Z,102204.43
2018-11-28T09:35:19.389Z,102208.40
2018-11-28T09:37:48.345Z,102213.30
2018-11-28T09:40:19.291Z,102219.77
2018-11-28T09:42:48.576Z,102217.88
2018-11-28T09:45:18.205Z,102216.09
2018-11-28T09:47:47.481Z,102212.74
2018-11-28T09:50:18.447Z,102215.50
2018-11-28T09:52:47.475Z,102211.95
2018-11-28T09:55:20.447Z,102210.95
2018-11-28T09:57:49.427Z,102198.89
2018-11-28T10:00:24.295Z,102192.58
2018-11-28T10:02:54.225Z,102192.07
2018-11-28T10:05:25.347Z,102194.15
2018-11-28T10:07:54.291Z,102197.10
2018-11-28T10:10:23.241Z,102203.00
2018-11-28T10:12:52.174Z,102196.68
2018-11-28T10:15:22.020Z,102183.03
2018-11-28T10:17:50.952Z,102183.90
2018-11-28T10:20:20.147Z,102190.30
2018-11-28T10:22:50.115Z,102192.25
2018-11-28T10:25:20.368Z,102173.55
2018-11-28T10:27:50.747Z,102171.09
2018-11-28T10:30:23.682Z,102166.03
2018-11-28T10:32:53.213Z,102178.30
2018-11-28T10:35:22.136Z,102188.52
2018-11-28T10:37:51.443Z,102182.77
2018-11-28T10:40:22.204Z,102171.15
2018-11-28T10:42:53.281Z,102172.47
2018-11-28T10:45:23.280Z,102173.28
2018-11-28T10:47:52.213Z,102162.94
2018-11-28T10:50:21.156Z,102168.77
2018-11-28T10:52:50.095Z,102163.96
2018-11-28T10:55:20.912Z,102162.42
2018-11-28T10:57:49.849Z,102158.45
2018-11-28T11:00:29.927Z,102154.76
2018-11-28T11:03:04.166Z,102149.13
2018-11-28T11:05:38.449Z,102150.03
2018-11-28T11:08:13.024Z,102150.66
2018-11-28T11:10:47.268Z,102155.81
2018-11-28T11:13:21.584Z,102143.03
2018-11-28T11:15:56.211Z,102136.92
2018-11-28T11:18:25.874Z,102139.15
2018-11-28T11:20:54.789Z,102131.06
2018-11-28T11:23:23.778Z,102133.50
2018-11-28T11:25:53.088Z,102129.97
2018-11-28T11:28:22.021Z,102126.77
2018-11-28T11:30:51.070Z,102121.05
2018-11-28T11:33:19.991Z,102123.34
2018-11-28T11:35:48.940Z,102114.59
2018-11-28T11:38:17.866Z,102121.19
2018-11-28T11:40:46.825Z,102119.73
2018-11-28T11:43:15.772Z,102120.17
2018-11-28T11:45:44.715Z,102114.87
2018-11-28T11:48:13.659Z,102122.01
2018-11-28T11:50:42.617Z,102120.41
2018-11-28T11:53:11.732Z,102118.34
2018-11-28T11:55:40.625Z,102113.59
2018-11-28T11:58:09.595Z,102116.72
2018-11-28T12:00:40.111Z,102112.42
2018-11-28T12:03:13.028Z,102117.61
2018-11-28T12:05:58.716Z,102110.31
2018-11-28T12:08:28.798Z,102105.27
2018-11-28T12:10:57.730Z,102101.06
2018-11-28T12:13:26.651Z,102098.69
2018-11-28T12:15:55.631Z,102093.88
2018-11-28T12:18:24.605Z,102088.59
2018-11-28T12:20:55.929Z,102074.52
2018-11-28T12:23:24.883Z,102067.19
2018-11-28T12:25:53.860Z,102077.05
2018-11-28T12:28:22.789Z,102071.09
2018-11-28T12:30:51.750Z,102077.03
2018-11-28T12:33:20.727Z,102067.50
2018-11-28T12:35:49.656Z,102070.95
2018-11-28T12:38:18.586Z,102070.56
2018-11-28T12:40:47.555Z,102065.98
2018-11-28T12:43:16.495Z,102061.61
2018-11-28T12:45:46.770Z,102071.02
2018-11-28T12:48:15.719Z,102059.84
2018-11-28T12:50:44.734Z,102054.52
2018-11-28T12:53:14.097Z,102056.52
2018-11-28T12:55:43.291Z,102059.30
2018-11-28T12:58:14.523Z,102059.50
2018-11-28T13:00:43.492Z,102049.36
2018-11-28T13:03:13.741Z,102053.66
2018-11-28T13:05:42.700Z,102050.04
2018-11-28T13:08:11.660Z,102051.62
2018-11-28T13:10:41.242Z,102041.17
2018-11-28T13:13:11.311Z,102041.61
2018-11-28T13:15:40.214Z,102042.45
2018-11-28T13:18:10.084Z,102040.05
2018-11-28T13:20:40.215Z,102036.61
2018-11-28T13:23:10.076Z,102039.05
2018-11-28T13:25:38.976Z,102023.18
2018-11-28T13:28:08.011Z,102031.05
2018-11-28T13:30:37.505Z,102044.59
2018-11-28T13:33:07.418Z,102036.87
2018-11-28T13:35:36.339Z,102031.94
2018-11-28T13:38:08.412Z,102021.45
2018-11-28T13:40:37.298Z,102023.05
2018-11-28T13:43:06.462Z,102014.30
2018-11-28T13:45:36.887Z,102006.23
2018-11-28T13:48:06.007Z,102011.53
2018-11-28T13:50:34.960Z,102018.52
2018-11-28T13:53:07.043Z,102017.95
2018-11-28T13:55:40.127Z,102009.58
2018-11-28T13:58:06.770Z,102008.59
2018-11-28T14:00:35.871Z,102011.57
2018-11-28T14:03:04.805Z,102018.62
2018-11-28T14:05:33.825Z,102016.96
2018-11-28T14:08:02.730Z,102016.81
2018-11-28T14:10:31.674Z,102013.28
2018-11-28T14:13:00.647Z,102006.52
2018-11-28T14:15:29.639Z,102002.39
2018-11-28T14:18:00.886Z,102000.88
2018-11-28T14:20:32.705Z,102011.00
2018-11-28T14:23:01.616Z,102004.33
2018-11-28T14:25:30.536Z,101997.05
2018-11-28T14:27:59.473Z,101989.01
2018-11-28T14:30:28.410Z,101994.55
2018-11-28T14:32:57.312Z,101993.72
2018-11-28T14:35:26.220Z,101999.27
2018-11-28T14:37:55.135Z,101994.45
2018-11-28T14:40:24.673Z,101991.61
2018-11-28T14:42:58.687Z,101987.54
2018-11-28T14:45:28.656Z,101985.13
2018-11-28T14:47:57.567Z,101991.28
2018-11-28T14:50:28.130Z,101989.15
2018-11-28T14:53:00.293Z,101990.14
2018-11-28T14:55:31.260Z,101988.50
2018-11-28T14:58:00.174Z,101995.05
2018-11-28T15:00:30.702Z,101993.79
2018-11-28T15:03:07.068Z,101983.01
2018-11-28T15:05:58.017Z,101988.30
2018-11-28T15:08:27.033Z,101984.66
2018-11-28T15:11:26.674Z,101976.81
2018-11-28T15:13:55.647Z,101981.77
2018-11-28T15:16:29.621Z,101979.64
2018-11-28T15:18:58.604Z,101981.91
2018-11-28T15:21:27.527Z,101982.39
2018-11-28T15:23:56.448Z,101980.31
2018-11-28T15:26:25.383Z,101975.52
2018-11-28T15:28:54.763Z,101974.53
2018-11-28T15:31:24.221Z,101973.83
2018-11-28T15:33:53.104Z,101962.86
2018-11-28T15:36:22.261Z,101959.55
2018-11-28T15:38:51.165Z,101961.10
2018-11-28T15:41:20.168Z,101960.02
2018-11-28T15:43:49.130Z,101950.99
2018-11-28T15:46:18.070Z,101950.33
2018-11-28T15:48:46.971Z,101954.22
2018-11-28T15:51:16.100Z,101958.89
2018-11-28T15:53:45.100Z,101957.27
2018-11-28T15:56:14.057Z,101949.20
2018-11-28T15:58:42.967Z,101953.11
2018-11-28T16:01:11.936Z,101944.86
2018-11-28T16:03:40.864Z,101946.31
2018-11-28T16:06:09.747Z,101940.97
2018-11-28T16:08:38.665Z,101937.77
2018-11-28T16:11:10.264Z,101933.65
2018-11-28T16:13:39.164Z,101927.64
2018-11-28T16:16:08.439Z,101928.69
2018-11-28T16:18:37.620Z,101925.03
2018-11-28T16:21:06.661Z,101928.50
2018-11-28T16:23:35.602Z,101926.73
2018-11-28T16:26:04.580Z,101927.30
2018-11-28T16:28:33.521Z,101925.19
2018-11-28T16:31:02.450Z,101925.19
2018-11-28T16:33:32.034Z,101928.17
2018-11-28T16:36:01.039Z,101934.83
2018-11-28T16:38:29.962Z,101932.89
2018-11-28T16:40:58.904Z,101931.77
2018-11-28T16:43:27.883Z,101935.06
2018-11-28T16:45:56.817Z,101927.52
2018-11-28T16:48:25.756Z,101927.17
2018-11-28T16:50:54.662Z,101931.91
2018-11-28T16:53:23.583Z,101918.76
2018-11-28T16:55:52.556Z,101913.80
2018-11-28T16:58:21.517Z,101920.38
2018-11-28T17:00:50.401Z,101919.62
2018-11-28T17:03:19.373Z,101926.19
2018-11-28T17:05:48.269Z,101914.94
2018-11-28T17:08:17.212Z,101922.60
2018-11-28T17:10:46.147Z,101929.53
2018-11-28T17:13:15.116Z,101921.22
2018-11-28T17:15:44.153Z,101927.88
2018-11-28T17:18:13.119Z,101923.55
2018-11-28T17:20:42.935Z,101921.74
2018-11-28T17:23:11.844Z,101918.38
2018-11-28T17:25:40.773Z,101914.08
2018-11-28T17:28:09.745Z,101902.73
2018-11-28T17:30:38.731Z,101905.81
2018-11-28T17:33:07.644Z,101909.64
2018-11-28T17:35:36.593Z,101901.94
2018-11-28T17:38:09.073Z,101888.42
2018-11-28T17:40:38.021Z,101883.45
2018-11-28T17:43:07.600Z,101885.41
2018-11-28T17:45:36.704Z,101884.41
2018-11-28T17:48:06.547Z,101880.48
2018-11-28T17:50:35.707Z,101884.22
2018-11-28T17:53:08.927Z,101887.80
2018-11-28T17:55:42.411Z,101885.34
2018-11-28T17:58:11.420Z,101885.71
2018-11-28T18:00:40.313Z,101877.07
2018-11-28T18:03:09.259Z,101875.86
2018-11-28T18:05:38.242Z,101856.98
2018-11-28T18:08:07.140Z,101860.95
2018-11-28T18:10:36.084Z,101855.28
2018-11-28T18:13:08.566Z,101862.38
2018-11-28T18:15:37.772Z,101850.05
2018-11-28T18:18:08.550Z,101840.59
2018-11-28T18:20:37.548Z,101834.74
2018-11-28T18:23:08.160Z,101820.89
2018-11-28T18:25:37.344Z,101825.19
2018-11-28T18:28:07.195Z,101827.73
2018-11-28T18:30:36.335Z,101838.98
2018-11-28T18:33:05.573Z,101837.50
2018-11-28T18:35:34.516Z,101831.84
2018-11-28T18:38:03.685Z,101824.13
2018-11-28T18:40:32.649Z,101818.91
2018-11-28T18:43:01.620Z,101827.58
2018-11-28T18:45:32.039Z,101831.81
2018-11-28T18:48:00.954Z,101852.14
2018-11-28T18:50:29.873Z,101852.91
2018-11-28T18:52:58.821Z,101850.27
2018-11-28T18:55:35.658Z,101864.43
2018-11-28T18:58:05.827Z,101851.16
2018-11-28T19:00:34.783Z,101847.39
2018-11-28T19:03:03.911Z,101847.36
2018-11-28T19:05:32.827Z,101862.88
2018-11-28T19:08:01.907Z,101872.77
2018-11-28T19:10:30.867Z,101857.59
2018-11-28T19:12:59.848Z,101854.80
2018-11-28T19:15:29.268Z,101845.27
2018-11-28T19:17:58.854Z,101851.59
2018-11-28T19:20:27.830Z,101849.67
2018-11-28T19:22:57.355Z,101835.27
2018-11-28T19:25:27.659Z,101843.44
2018-11-28T19:27:56.697Z,101847.17
2018-11-28T19:30:31.088Z,101845.84
2018-11-28T19:32:58.352Z,101846.55
2018-11-28T19:35:27.352Z,101839.60
2018-11-28T19:37:56.374Z,101843.20
2018-11-28T19:40:28.892Z,101828.19
2018-11-28T19:42:57.847Z,101839.31
2018-11-28T19:45:26.781Z,101835.69
2018-11-28T19:47:55.832Z,101823.34
2018-11-28T19:50:27.441Z,101809.89
2018-11-28T19:52:56.428Z,101802.32
2018-11-28T19:55:25.374Z,101803.20
2018-11-28T19:57:54.300Z,101795.81
2018-11-28T20:00:23.247Z,101784.23
2018-11-28T20:02:52.416Z,101789.90
2018-11-28T20:05:21.426Z,101788.95
2018-11-28T20:07:51.025Z,101786.11
2018-11-28T20:10:22.092Z,101783.46
2018-11-28T20:12:51.276Z,101786.41
2018-11-28T20:15:21.564Z,101785.20
2018-11-28T20:17:50.784Z,101794.23
2018-11-28T20:20:20.158Z,101792.91
2018-11-28T20:22:49.209Z,101787.47
2018-11-28T20:25:19.173Z,101785.81
2018-11-28T20:27:50.592Z,101774.19
2018-11-28T20:30:21.139Z,101760.62
2018-11-28T20:32:50.137Z,101750.55
2018-11-28T20:35:19.279Z,101747.39
2018-11-28T20:37:48.283Z,101755.24
2018-11-28T20:40:17.968Z,101759.63
2018-11-28T20:42:51.358Z,101756.05
2018-11-28T20:45:20.332Z,101750.91
2018-11-28T20:47:49.361Z,101752.98
2018-11-28T20:50:35.811Z,101764.78
2018-11-28T20:53:08.300Z,101764.15
2018-11-28T20:55:37.373Z,101760.18
2018-11-28T20:58:06.867Z,101755.69
2018-11-28T21:00:35.947Z,101755.42
2018-11-28T21:03:05.174Z,101749.49
2018-11-28T21:05:34.126Z,101735.86
2018-11-28T21:08:03.124Z,101720.64
2018-11-28T21:10:37.205Z,101721.61
2018-11-28T21:13:07.559Z,101710.38
2018-11-28T21:15:36.937Z,101706.88
2018-11-28T21:18:06.768Z,101706.41
2018-11-28T21:20:35.699Z,101705.28
2018-11-28T21:23:07.553Z,101705.90
2018-11-28T21:25:36.606Z,101712.16
2018-11-28T21:28:05.656Z,101708.65
2018-11-28T21:30:34.658Z,101696.12
2018-11-28T21:33:03.623Z,101704.52
2018-11-28T21:35:35.171Z,101701.13
2018-11-28T21:38:04.150Z,101703.25
2018-11-28T21:40:33.061Z,101708.18
2018-11-28T21:43:02.129Z,101709.96
2018-11-28T21:45:31.065Z,101701.66
2018-11-28T21:48:00.020Z,101693.73
2018-11-28T21:50:29.004Z,101684.48
2018-11-28T21:52:57.953Z,101680.64
2018-11-28T21:55:26.904Z,101677.00
2018-11-28T21:57:55.877Z,101676.87
2018-11-28T22:00:27.242Z,101670.51
2018-11-28T22:02:56.336Z,101672.62
2018-11-28T22:05:25.664Z,101663.23
2018-11-28T22:07:54.674Z,101669.81
2018-11-28T22:10:25.328Z,101671.77
2018-11-28T22:12:55.143Z,101667.67
2018-11-28T22:15:24.080Z,101676.33
2018-11-28T22:17:56.867Z,101671.20
2018-11-28T22:20:26.512Z,101672.37
2018-11-28T22:22:55.488Z,101680.92
2018-11-28T22:25:25.305Z,101685.38
2018-11-28T22:27:54.324Z,101677.47
2018-11-28T22:30:25.327Z,101680.64
2018-11-28T22:32:54.321Z,101674.37
2018-11-28T22:35:23.285Z,101672.05
2018-11-28T22:37:52.378Z,101677.66
2018-11-28T22:40:22.342Z,101677.37
2018-11-28T22:42:51.272Z,101671.33
2018-11-28T22:45:21.489Z,101671.22
2018-11-28T22:47:50.459Z,101674.48
2018-11-28T22:50:19.377Z,101668.43
2018-11-28T22:52:48.310Z,101674.39
2018-11-28T22:55:18.029Z,101671.13
2018-11-28T22:57:46.991Z,101673.24
2018-11-28T23:00:17.156Z,101674.74
2018-11-28T23:02:56.163Z,101662.83
2018-11-28T23:05:28.530Z,101651.08
2018-11-28T23:07:58.575Z,101645.27
2018-11-28T23:10:27.501Z,101648.58
2018-11-28T23:12:56.500Z,101640.14
2018-11-28T23:15:25.455Z,101639.83
2018-11-28T23:17:55.320Z,101636.13
2018-11-28T23:20:23.400Z,101638.19
2018-11-28T23:22:58.259Z,101626.95
2018-11-28T23:25:27.761Z,101619.11
2018-11-28T23:28:04.117Z,101607.22
2018-11-28T23:30:38.260Z,101613.66
2018-11-28T23:33:16.221Z,101611.34
2018-11-28T23:35:50.925Z,101606.03
2018-11-28T23:38:27.207Z,101603.91
2018-11-28T23:41:00.970Z,101601.93
2018-11-28T23:43:29.983Z,101602.89
2018-11-28T23:48:39.698Z,101602.28
2018-11-28T23:51:08.710Z,101599.77
2018-11-28T23:53:37.628Z,101598.63
2018-11-28T23:56:06.657Z,101599.13
2018-11-28T23:58:35.625Z,101596.13
